Terminal Aerodrome Forecast
Issued by NWS

Home | Current Version | Previous Version | Text Only | Print | Product List | Glossary Off
Versions: 1 2 3 4 5 6 7 8 9 10 11 12 13 14 15 16 17 18 19

000
FTUS43 KICT 171152
TAFSLN
TAF
KSLN 171152Z 1712/1812 34004KT P6SM VCTS OVC035CB
      TEMPO 1712/1715 5SM -TSRA OVC035CB
     FM171600 14010KT P6SM SCT050 BKN250
     FM172100 15005KT P6SM VCTS BKN050CB
     FM180600 VRB05KT P6SM BKN100=

USA.gov is the U.S. government's official web portal to all federal, state and local government web resources and services.